Time;durP1;ratioP1;P1;durP2;ratioP2;P2;SDS_P1;SDS_P2;PMS_P1;PMS_P2;Temp;Humidity;BMP_temperature;BMP_pressure;BME280_temperature;BME280_humidity;BME280_pressure;Samples;Min_cycle;Max_cycle;Signal;HPM_P1;HPM_P2
2023/07/24 00:00:54;;;;;;;17.00;16.00;;;21.30;99.90;;;;;;4866376;29;20874;-82
2023/07/24 00:03:22;;;;;;;17.80;16.60;;;21.40;99.90;;;;;;4865490;29;20542;-81
2023/07/24 00:05:50;;;;;;;17.03;16.03;;;21.40;99.90;;;;;;4867445;29;20579;-81
2023/07/24 00:08:19;;;;;;;16.27;15.37;;;21.40;99.90;;;;;;4868489;29;20484;-82
2023/07/24 00:10:48;;;;;;;17.47;16.27;;;21.40;99.90;;;;;;4869504;29;20602;-81
2023/07/24 00:13:16;;;;;;;17.30;16.20;;;21.40;99.90;;;;;;4868732;29;20996;-81
2023/07/24 00:15:44;;;;;;;17.90;16.80;;;21.40;99.90;;;;;;4864684;29;20523;-82
2023/07/24 00:18:13;;;;;;;18.00;16.80;;;21.30;99.90;;;;;;4864851;29;20560;-82
2023/07/24 00:20:41;;;;;;;17.93;16.77;;;21.20;99.90;;;;;;4866357;29;20563;-82
2023/07/24 00:23:09;;;;;;;17.43;16.50;;;21.10;99.90;;;;;;4864295;29;20464;-81
2023/07/24 00:25:37;;;;;;;19.27;17.90;;;21.00;99.90;;;;;;4847572;29;20842;-81
2023/07/24 00:28:07;;;;;;;18.00;16.90;;;21.00;99.90;;;;;;4849777;29;20491;-81
2023/07/24 00:30:35;;;;;;;18.40;17.30;;;20.90;99.90;;;;;;4859265;29;20498;-82
2023/07/24 00:33:03;;;;;;;18.37;17.27;;;20.80;99.90;;;;;;4866270;29;20528;-81
2023/07/24 00:35:31;;;;;;;17.90;16.80;;;20.80;99.90;;;;;;4867163;29;20546;-82
2023/07/24 00:37:59;;;;;;;17.50;16.40;;;20.70;99.90;;;;;;4865643;29;21260;-81
2023/07/24 00:40:28;;;;;;;18.20;16.97;;;20.60;99.90;;;;;;4867019;29;20487;-82
2023/07/24 00:42:56;;;;;;;17.70;16.70;;;20.60;99.90;;;;;;4866839;29;20998;-81
2023/07/24 00:45:26;;;;;;;17.23;16.30;;;20.50;99.90;;;;;;4861283;29;21021;-82
2023/07/24 00:47:54;;;;;;;18.20;17.10;;;20.50;99.90;;;;;;4867757;29;20498;-83
2023/07/24 00:50:22;;;;;;;18.37;17.23;;;20.60;1.00;;;;;;4867924;29;20508;-81
2023/07/24 00:52:51;;;;;;;17.80;16.80;;;20.70;1.00;;;;;;4869390;29;20498;-81
2023/07/24 00:55:19;;;;;;;18.63;17.53;;;20.60;1.00;;;;;;4870332;29;20474;-82
2023/07/24 00:57:47;;;;;;;18.27;17.07;;;20.60;1.00;;;;;;4868932;29;20575;-81
2023/07/24 01:00:16;;;;;;;17.13;16.13;;;20.60;1.00;;;;;;4866734;29;20486;-81
2023/07/24 01:02:46;;;;;;;18.23;17.13;;;20.60;1.00;;;;;;4867503;29;20715;-81
2023/07/24 01:05:15;;;;;;;18.10;16.90;;;20.60;1.00;;;;;;4866452;29;20471;-81
2023/07/24 01:07:44;;;;;;;17.30;16.13;;;20.60;1.00;;;;;;4868928;29;20622;-82
2023/07/24 01:10:12;;;;;;;17.97;16.77;;;20.50;1.00;;;;;;4867147;29;20603;-82
2023/07/24 01:12:46;;;;;;;17.70;16.70;;;20.50;1.00;;;;;;4867738;29;20760;-82
2023/07/24 01:15:20;;;;;;;17.63;16.70;;;20.60;99.90;;;;;;4864910;29;20457;-82
2023/07/24 01:17:57;;;;;;;18.27;17.10;;;20.60;99.90;;;;;;4863882;29;20460;-82
2023/07/24 01:20:29;;;;;;;18.07;17.07;;;20.50;99.90;;;;;;4863661;29;20492;-81
2023/07/24 01:23:14;;;;;;;17.53;16.33;;;20.60;99.90;;;;;;4867240;29;20463;-81
2023/07/24 01:25:57;;;;;;;18.83;17.60;;;20.60;99.90;;;;;;4865836;29;20570;-82
2023/07/24 01:28:26;;;;;;;17.80;16.67;;;20.60;99.90;;;;;;4866494;29;20491;-82
2023/07/24 01:30:55;;;;;;;17.67;16.67;;;20.60;99.90;;;;;;4860299;29;20489;-82
2023/07/24 01:33:24;;;;;;;17.47;16.47;;;20.60;99.90;;;;;;4865927;29;20479;-83
2023/07/24 01:35:56;;;;;;;17.43;16.23;;;20.60;99.90;;;;;;4860783;29;20828;-82
2023/07/24 01:38:26;;;;;;;16.67;15.77;;;20.60;99.90;;;;;;4862045;29;20619;-82
2023/07/24 01:40:56;;;;;;;18.03;16.93;;;20.60;99.90;;;;;;4862718;29;20483;-82
2023/07/24 01:43:27;;;;;;;17.10;16.00;;;20.60;99.90;;;;;;4866782;29;20489;-82
2023/07/24 01:45:56;;;;;;;17.70;16.53;;;20.60;99.90;;;;;;4865484;29;20467;-81
2023/07/24 01:48:24;;;;;;;17.70;16.60;;;20.60;99.90;;;;;;4866378;29;20482;-82
2023/07/24 01:50:52;;;;;;;17.47;16.37;;;20.60;99.90;;;;;;4865620;29;20478;-82
2023/07/24 01:53:20;;;;;;;17.10;15.90;;;20.70;99.90;;;;;;4864431;29;20495;-82
2023/07/24 01:55:48;;;;;;;17.83;16.83;;;20.70;99.90;;;;;;4865227;29;20473;-82
2023/07/24 01:58:18;;;;;;;18.30;17.10;;;20.70;99.90;;;;;;4868168;29;20499;-82
2023/07/24 02:00:46;;;;;;;17.30;16.37;;;20.70;99.90;;;;;;4865490;29;20495;-81
2023/07/24 02:03:14;;;;;;;17.50;16.60;;;20.70;99.90;;;;;;4866987;29;20978;-82
2023/07/24 02:05:43;;;;;;;18.03;16.93;;;20.60;99.90;;;;;;4865105;29;20464;-82
2023/07/24 02:08:11;;;;;;;17.97;16.67;;;20.60;99.90;;;;;;4868481;29;22180;-81
2023/07/24 02:10:39;;;;;;;16.70;15.80;;;20.70;99.90;;;;;;4866025;29;20495;-82
2023/07/24 02:13:07;;;;;;;18.90;17.60;;;20.70;99.90;;;;;;4863193;29;20467;-82
2023/07/24 02:15:37;;;;;;;18.63;17.50;;;20.70;99.90;;;;;;4867110;29;20821;-81
2023/07/24 02:18:05;;;;;;;17.50;16.50;;;20.70;99.90;;;;;;4865610;29;20451;-82
2023/07/24 02:20:33;;;;;;;17.80;16.70;;;20.70;99.90;;;;;;4865100;29;20475;-83
2023/07/24 02:23:02;;;;;;;17.17;16.23;;;20.60;99.90;;;;;;4862016;29;20469;-82
2023/07/24 02:25:30;;;;;;;17.40;16.37;;;20.70;99.90;;;;;;4860984;29;20468;-83
2023/07/24 02:27:58;;;;;;;16.80;15.83;;;20.70;99.90;;;;;;4864172;29;20631;-82
2023/07/24 02:30:26;;;;;;;17.20;16.20;;;20.60;99.90;;;;;;4860893;29;21151;-82
2023/07/24 02:32:56;;;;;;;17.37;16.30;;;20.60;99.90;;;;;;4861363;29;20978;-82
2023/07/24 02:35:25;;;;;;;16.90;15.90;;;20.60;99.90;;;;;;4863800;29;20558;-82
2023/07/24 02:37:53;;;;;;;17.40;16.30;;;20.60;99.90;;;;;;4862729;29;20472;-82
2023/07/24 02:40:21;;;;;;;17.43;16.40;;;20.60;99.90;;;;;;4862104;29;20471;-83
2023/07/24 02:42:49;;;;;;;16.40;15.40;;;20.60;99.90;;;;;;4863455;29;20487;-83
2023/07/24 02:45:17;;;;;;;17.73;16.70;;;20.50;99.90;;;;;;4848244;29;20474;-82
2023/07/24 02:47:45;;;;;;;18.00;16.90;;;20.50;99.90;;;;;;4864690;29;20470;-82
2023/07/24 02:50:15;;;;;;;16.90;15.80;;;20.50;99.90;;;;;;4865059;29;20554;-82
2023/07/24 02:52:43;;;;;;;16.83;15.83;;;20.40;99.90;;;;;;4848106;29;20469;-82
2023/07/24 02:55:11;;;;;;;16.80;15.80;;;20.40;99.90;;;;;;4864710;29;20590;-80
2023/07/24 02:57:39;;;;;;;17.60;16.60;;;20.40;99.90;;;;;;4866296;29;20503;-80
2023/07/24 03:00:09;;;;;;;16.50;15.43;;;20.30;99.90;;;;;;4861828;29;20495;-81
2023/07/24 03:02:37;;;;;;;18.53;17.33;;;20.30;99.90;;;;;;4865823;29;20881;-81
2023/07/24 03:05:06;;;;;;;18.00;16.90;;;20.20;99.90;;;;;;4866461;29;20933;-81
2023/07/24 03:07:36;;;;;;;18.87;17.67;;;20.10;99.90;;;;;;4866605;29;20831;-81
2023/07/24 03:10:05;;;;;;;17.00;16.00;;;20.10;99.90;;;;;;4867574;29;21117;-81
2023/07/24 03:12:33;;;;;;;17.80;16.83;;;20.00;99.90;;;;;;4866013;29;22198;-82
2023/07/24 03:15:01;;;;;;;18.07;16.97;;;19.90;99.90;;;;;;4862674;29;20554;-81
2023/07/24 03:17:29;;;;;;;18.23;17.10;;;19.90;99.90;;;;;;4863718;29;20471;-82
2023/07/24 03:19:57;;;;;;;18.30;17.10;;;19.80;99.90;;;;;;4863861;29;20486;-82
2023/07/24 03:22:25;;;;;;;17.70;16.80;;;19.80;99.90;;;;;;4865826;29;20472;-83
2023/07/24 03:24:55;;;;;;;18.13;17.10;;;19.90;99.90;;;;;;4863129;29;20477;-82
2023/07/24 03:27:23;;;;;;;17.50;16.30;;;20.00;99.90;;;;;;4865649;29;20921;-81
2023/07/24 03:29:51;;;;;;;16.37;15.37;;;20.00;99.90;;;;;;4866379;29;20936;-81
2023/07/24 03:32:19;;;;;;;18.23;17.03;;;20.10;99.90;;;;;;4863985;29;20452;-81
2023/07/24 03:34:48;;;;;;;17.33;16.23;;;20.10;99.90;;;;;;4867662;29;20460;-81
2023/07/24 03:37:16;;;;;;;17.73;16.43;;;20.10;99.90;;;;;;4866541;29;20462;-81
2023/07/24 03:39:44;;;;;;;17.70;16.50;;;20.10;99.90;;;;;;4867370;29;20500;-80
2023/07/24 03:42:25;;;;;;;18.00;16.90;;;20.00;99.90;;;;;;4864351;29;21015;-81
2023/07/24 03:44:53;;;;;;;17.40;16.30;;;19.90;99.90;;;;;;4865070;29;20788;-82
2023/07/24 03:47:21;;;;;;;17.87;16.87;;;19.80;99.90;;;;;;4863068;29;20473;-82
2023/07/24 03:49:49;;;;;;;17.70;16.70;;;19.80;99.90;;;;;;4867681;29;20496;-81
2023/07/24 03:52:17;;;;;;;17.30;16.20;;;19.80;99.90;;;;;;4864532;29;20546;-81
2023/07/24 03:54:46;;;;;;;18.00;17.00;;;19.80;99.90;;;;;;4865655;29;20994;-81
2023/07/24 03:57:15;;;;;;;17.33;16.43;;;19.70;99.90;;;;;;4865622;29;20474;-81
2023/07/24 03:59:43;;;;;;;17.33;16.27;;;19.80;99.90;;;;;;4860831;29;20485;-82
2023/07/24 04:02:11;;;;;;;18.73;17.23;;;19.80;99.90;;;;;;4862647;29;20483;-82
2023/07/24 04:04:40;;;;;;;18.23;17.23;;;19.80;99.90;;;;;;4862730;29;20476;-81
2023/07/24 04:07:08;;;;;;;18.27;17.03;;;19.80;99.90;;;;;;4868708;29;20512;-82
2023/07/24 04:09:36;;;;;;;18.70;17.27;;;19.80;99.90;;;;;;4869665;29;20595;-82
2023/07/24 04:12:05;;;;;;;17.53;16.63;;;19.70;99.90;;;;;;4868114;29;20493;-81
2023/07/24 04:14:34;;;;;;;18.80;17.70;;;19.60;99.90;;;;;;4866925;29;20475;-81
2023/07/24 04:17:03;;;;;;;18.87;17.77;;;19.70;1.00;;;;;;4866579;29;20478;-81
2023/07/24 04:19:31;;;;;;;19.50;18.20;;;19.70;99.90;;;;;;4853384;29;21486;-81
2023/07/24 04:21:59;;;;;;;19.70;18.40;;;19.70;1.00;;;;;;4870280;29;20516;-81
2023/07/24 04:24:28;;;;;;;18.43;17.40;;;19.70;1.00;;;;;;4869296;29;20522;-81
2023/07/24 04:26:56;;;;;;;18.80;17.70;;;19.70;1.00;;;;;;4853434;29;20515;-81
2023/07/24 04:29:25;;;;;;;18.93;17.73;;;19.70;1.00;;;;;;4865965;29;20492;-82
2023/07/24 04:31:55;;;;;;;19.70;18.50;;;19.80;1.00;;;;;;4865833;29;20520;-81
2023/07/24 04:34:23;;;;;;;20.00;18.70;;;19.80;1.00;;;;;;4862176;29;21022;-78
2023/07/24 04:36:51;;;;;;;19.90;18.37;;;19.70;1.00;;;;;;4865575;29;20479;-78
2023/07/24 04:39:19;;;;;;;19.63;18.50;;;19.60;1.00;;;;;;4866404;29;20482;-77
2023/07/24 04:41:47;;;;;;;20.50;18.80;;;19.60;1.00;;;;;;4864359;29;20464;-78
2023/07/24 04:44:15;;;;;;;19.37;18.17;;;19.60;1.00;;;;;;4865200;29;20464;-78
2023/07/24 04:46:43;;;;;;;19.60;18.30;;;19.60;1.00;;;;;;4862166;29;20461;-78
2023/07/24 04:49:13;;;;;;;18.83;17.83;;;19.60;1.00;;;;;;4865425;29;20511;-78
2023/07/24 04:51:41;;;;;;;20.00;18.80;;;19.60;1.00;;;;;;4866601;29;21016;-78
2023/07/24 04:54:09;;;;;;;19.13;18.03;;;19.60;1.00;;;;;;4859514;29;20476;-77
2023/07/24 04:56:37;;;;;;;18.90;17.90;;;19.60;1.00;;;;;;4867371;29;20684;-75
2023/07/24 04:59:05;;;;;;;19.70;18.43;;;19.60;1.00;;;;;;4862399;29;20465;-75
2023/07/24 05:01:33;;;;;;;20.37;19.07;;;19.60;1.00;;;;;;4859350;29;20483;-75
2023/07/24 05:04:02;;;;;;;20.00;18.80;;;19.60;1.00;;;;;;4866878;29;20468;-75
2023/07/24 05:06:31;;;;;;;20.37;18.97;;;19.60;1.00;;;;;;4864728;29;20490;-76
2023/07/24 05:09:00;;;;;;;21.23;19.83;;;19.70;1.00;;;;;;4860172;29;20966;-79
2023/07/24 05:11:28;;;;;;;20.53;19.30;;;19.70;1.00;;;;;;4861087;29;20503;-78
2023/07/24 05:13:56;;;;;;;21.00;19.70;;;19.80;1.00;;;;;;4857477;29;20455;-77
2023/07/24 05:16:24;;;;;;;22.30;20.67;;;19.80;1.00;;;;;;4863397;29;20505;-79
2023/07/24 05:18:52;;;;;;;20.77;19.30;;;19.90;1.00;;;;;;4865854;29;20579;-78
2023/07/24 05:21:21;;;;;;;21.50;20.13;;;20.00;1.00;;;;;;4849479;29;20895;-78
2023/07/24 05:23:50;;;;;;;22.00;20.50;;;20.00;1.00;;;;;;4855401;29;20824;-78
2023/07/24 05:26:18;;;;;;;19.03;18.07;;;20.00;1.00;;;;;;4864012;29;20474;-78
2023/07/24 05:28:48;;;;;;;20.33;19.13;;;20.00;1.00;;;;;;4864175;29;20905;-78
2023/07/24 05:31:16;;;;;;;20.63;19.35;;;19.90;1.00;;;;;;4859558;29;20457;-78
2023/07/24 05:33:44;;;;;;;22.37;20.97;;;20.00;1.00;;;;;;4862777;29;20198;-79
2023/07/24 05:36:12;;;;;;;22.00;20.43;;;20.00;1.00;;;;;;4863319;29;20459;-78
2023/07/24 05:38:40;;;;;;;20.33;19.23;;;20.00;1.00;;;;;;4866264;29;20487;-79
2023/07/24 05:41:09;;;;;;;21.33;20.03;;;20.00;1.00;;;;;;4864822;29;20532;-78
2023/07/24 05:43:37;;;;;;;20.33;19.07;;;20.00;1.00;;;;;;4863497;29;20469;-78
2023/07/24 05:46:06;;;;;;;20.00;18.90;;;20.00;99.90;;;;;;4863003;29;20830;-79
2023/07/24 05:48:34;;;;;;;19.90;18.63;;;20.10;99.90;;;;;;4863765;29;20479;-79
2023/07/24 05:51:02;;;;;;;21.03;19.73;;;20.10;99.90;;;;;;4856829;29;20691;-78
2023/07/24 05:53:30;;;;;;;20.60;19.10;;;20.10;99.90;;;;;;4850644;29;20503;-79
2023/07/24 05:56:00;;;;;;;22.37;20.67;;;20.20;99.90;;;;;;4859154;29;20463;-79
2023/07/24 05:58:29;;;;;;;21.17;19.80;;;20.20;99.90;;;;;;4864322;29;20963;-79
2023/07/24 06:00:57;;;;;;;20.77;19.37;;;20.20;99.90;;;;;;4861986;29;20495;-79
2023/07/24 06:03:26;;;;;;;21.20;19.83;;;20.20;99.90;;;;;;4863003;29;20475;-78
2023/07/24 06:05:55;;;;;;;20.67;19.47;;;20.20;99.90;;;;;;4862602;29;20487;-78
2023/07/24 06:08:23;;;;;;;20.77;19.57;;;20.20;99.90;;;;;;4861246;29;20466;-79
2023/07/24 06:10:52;;;;;;;21.03;19.73;;;20.20;99.90;;;;;;4854671;29;20482;-79
2023/07/24 06:13:20;;;;;;;22.37;20.97;;;20.20;99.90;;;;;;4859724;29;20464;-79
2023/07/24 06:15:51;;;;;;;21.73;20.40;;;20.20;99.90;;;;;;4860639;29;20469;-78
2023/07/24 06:18:19;;;;;;;19.73;18.60;;;20.20;99.90;;;;;;4859779;29;20464;-77
2023/07/24 06:20:49;;;;;;;21.30;20.00;;;20.30;99.90;;;;;;4862539;29;20492;-78
2023/07/24 06:23:18;;;;;;;20.63;19.33;;;20.20;99.90;;;;;;4860484;29;20468;-78
2023/07/24 06:25:46;;;;;;;21.30;19.67;;;20.30;99.90;;;;;;4855712;29;20503;-78
2023/07/24 06:28:14;;;;;;;20.90;19.43;;;20.30;99.90;;;;;;4860268;29;20823;-79
2023/07/24 06:30:42;;;;;;;21.17;19.73;;;20.30;99.90;;;;;;4863549;29;21014;-78
2023/07/24 06:33:12;;;;;;;20.23;19.03;;;20.40;99.90;;;;;;4861558;29;21315;-77
2023/07/24 06:35:40;;;;;;;21.13;19.93;;;20.50;99.90;;;;;;4861201;29;20475;-77
2023/07/24 06:38:09;;;;;;;21.23;19.70;;;20.50;99.90;;;;;;4859448;29;20476;-78
2023/07/24 06:40:37;;;;;;;21.70;20.30;;;20.60;99.90;;;;;;4862337;29;20621;-79
2023/07/24 06:43:05;;;;;;;21.33;20.03;;;20.60;99.90;;;;;;4859344;29;20466;-78
2023/07/24 06:45:33;;;;;;;21.53;20.27;;;20.70;99.90;;;;;;4863027;29;20464;-79
2023/07/24 06:48:02;;;;;;;20.67;19.47;;;20.80;99.90;;;;;;4862963;29;20485;-79
2023/07/24 06:50:31;;;;;;;21.03;19.73;;;20.80;99.90;;;;;;4860934;29;21006;-79
2023/07/24 06:52:59;;;;;;;21.40;20.03;;;20.80;99.90;;;;;;4862702;29;20527;-77
2023/07/24 06:55:27;;;;;;;20.80;19.40;;;20.80;99.90;;;;;;4863032;29;20826;-77
2023/07/24 06:57:55;;;;;;;20.33;19.03;;;20.80;99.90;;;;;;4864655;29;20804;-78
2023/07/24 07:00:23;;;;;;;21.53;20.23;;;20.90;99.90;;;;;;4864452;29;20498;-78
2023/07/24 07:02:52;;;;;;;21.07;19.80;;;20.90;99.90;;;;;;4863443;29;20470;-78
2023/07/24 07:05:20;;;;;;;21.70;20.10;;;20.90;99.90;;;;;;4861531;29;20528;-79
2023/07/24 07:07:50;;;;;;;21.43;20.03;;;21.00;99.90;;;;;;4862597;29;20504;-78
2023/07/24 07:10:18;;;;;;;20.53;19.43;;;21.00;99.90;;;;;;4861645;29;20482;-78
2023/07/24 07:12:46;;;;;;;21.83;20.40;;;21.10;99.90;;;;;;4859961;29;20993;-78
2023/07/24 07:15:14;;;;;;;21.10;19.90;;;21.10;99.90;;;;;;4855546;29;20457;-77
2023/07/24 07:17:43;;;;;;;22.33;20.57;;;21.10;99.90;;;;;;4863588;29;20654;-78
2023/07/24 07:20:11;;;;;;;22.17;20.77;;;21.20;99.90;;;;;;4864664;29;20479;-77
2023/07/24 07:22:39;;;;;;;21.60;20.30;;;21.10;99.90;;;;;;4860704;29;20461;-77
2023/07/24 07:25:09;;;;;;;22.57;21.03;;;21.20;99.90;;;;;;4863206;29;20468;-77
2023/07/24 07:27:37;;;;;;;21.20;20.00;;;21.00;99.90;;;;;;4864838;29;20468;-78
2023/07/24 07:30:07;;;;;;;21.50;20.03;;;21.00;99.90;;;;;;4864111;29;20476;-78
2023/07/24 07:32:35;;;;;;;22.30;20.80;;;20.90;99.90;;;;;;4864744;29;20483;-77
2023/07/24 07:35:04;;;;;;;22.73;21.33;;;20.90;99.90;;;;;;4863134;29;21036;-78
2023/07/24 07:37:32;;;;;;;22.23;20.77;;;20.90;99.90;;;;;;4869285;29;21926;-78
2023/07/24 07:40:00;;;;;;;22.20;20.80;;;21.00;99.90;;;;;;4868836;29;20498;-78
2023/07/24 07:42:29;;;;;;;21.50;20.10;;;21.10;99.90;;;;;;4866039;29;20478;-76
2023/07/24 07:44:58;;;;;;;21.10;19.80;;;21.10;99.90;;;;;;4866682;29;20456;-78
2023/07/24 07:47:26;;;;;;;21.30;20.10;;;21.20;99.90;;;;;;4866093;29;20451;-77
2023/07/24 07:49:54;;;;;;;21.90;20.60;;;21.20;99.90;;;;;;4866671;29;20578;-77
2023/07/24 07:52:22;;;;;;;20.93;19.63;;;21.20;99.90;;;;;;4869421;29;20488;-78
2023/07/24 07:54:50;;;;;;;21.57;20.20;;;21.30;99.90;;;;;;4866122;29;20460;-77
2023/07/24 07:57:19;;;;;;;22.00;20.53;;;21.30;99.90;;;;;;4869461;29;20809;-78
2023/07/24 07:59:48;;;;;;;20.90;19.70;;;21.30;99.90;;;;;;4868275;29;20494;-77
2023/07/24 08:02:17;;;;;;;21.03;19.57;;;21.30;99.90;;;;;;4867037;29;20464;-77
2023/07/24 08:04:45;;;;;;;21.30;19.97;;;21.30;99.90;;;;;;4869780;29;21079;-77
2023/07/24 08:07:13;;;;;;;21.97;20.57;;;21.20;99.90;;;;;;4862920;29;20547;-77
2023/07/24 08:09:41;;;;;;;20.80;19.37;;;21.20;99.90;;;;;;4866951;29;20487;-77
2023/07/24 08:12:09;;;;;;;21.50;20.00;;;21.10;99.90;;;;;;4869736;29;20542;-78
2023/07/24 08:14:37;;;;;;;21.70;20.30;;;21.10;1.00;;;;;;4866455;29;20880;-77
2023/07/24 08:17:07;;;;;;;21.53;20.13;;;21.00;1.00;;;;;;4868168;29;20459;-78
2023/07/24 08:19:35;;;;;;;20.47;19.33;;;20.90;69.10;;;;;;4867439;29;20509;-78
2023/07/24 08:22:05;;;;;;;20.83;19.53;;;20.90;99.90;;;;;;4866977;29;20902;-78
2023/07/24 08:24:35;;;;;;;20.77;19.63;;;20.90;99.90;;;;;;4868893;29;20467;-77
2023/07/24 08:27:03;;;;;;;20.83;19.63;;;20.90;99.90;;;;;;4868405;29;20525;-78
2023/07/24 08:29:33;;;;;;;20.07;18.67;;;20.90;99.90;;;;;;4868150;29;20490;-78
2023/07/24 08:32:01;;;;;;;20.20;19.20;;;20.90;1.00;;;;;;4865433;29;20459;-78
2023/07/24 08:34:31;;;;;;;19.90;18.80;;;20.90;1.00;;;;;;4868833;29;20969;-79
2023/07/24 08:36:59;;;;;;;20.30;19.00;;;20.90;1.00;;;;;;4861847;29;20516;-78
2023/07/24 08:39:27;;;;;;;19.67;18.70;;;20.90;1.00;;;;;;4866174;29;20488;-78
2023/07/24 08:41:55;;;;;;;19.27;18.27;;;20.90;1.00;;;;;;4868772;29;20455;-79
2023/07/24 08:44:26;;;;;;;18.93;18.03;;;20.90;1.00;;;;;;4867660;29;20457;-78
2023/07/24 08:46:54;;;;;;;20.37;18.97;;;20.90;99.90;;;;;;4866334;29;20461;-78
2023/07/24 08:49:23;;;;;;;18.97;18.07;;;20.90;7.60;;;;;;4864524;29;20490;-78
2023/07/24 08:51:52;;;;;;;19.07;18.17;;;20.80;1.00;;;;;;4864090;29;20475;-78
2023/07/24 08:54:22;;;;;;;19.23;18.33;;;20.80;99.90;;;;;;4865697;29;20480;-78
2023/07/24 08:56:51;;;;;;;19.73;18.83;;;20.80;99.90;;;;;;4865339;29;20463;-78
2023/07/24 08:59:19;;;;;;;20.50;19.50;;;20.80;99.90;;;;;;4867377;29;20461;-78
2023/07/24 09:01:48;;;;;;;20.13;19.03;;;20.80;99.90;;;;;;4861505;29;20480;-77
2023/07/24 09:04:16;;;;;;;20.90;19.70;;;20.70;1.00;;;;;;4868056;29;20484;-78
2023/07/24 09:06:45;;;;;;;19.77;18.60;;;20.60;1.00;;;;;;4865262;29;21109;-78
2023/07/24 09:09:16;;;;;;;20.20;19.10;;;20.70;1.00;;;;;;4867485;29;20467;-77
2023/07/24 09:11:48;;;;;;;19.53;18.30;;;20.80;1.00;;;;;;4864853;29;20461;-78
2023/07/24 09:14:24;;;;;;;19.83;18.83;;;20.80;99.90;;;;;;4864124;29;21047;-78
2023/07/24 09:17:03;;;;;;;19.73;18.73;;;20.90;48.70;;;;;;4866532;29;20473;-79
2023/07/24 09:19:31;;;;;;;19.50;18.60;;;20.90;16.30;;;;;;4865897;29;20483;-78
2023/07/24 09:22:10;;;;;;;19.43;18.43;;;21.00;1.00;;;;;;4866231;29;21146;-78
2023/07/24 09:24:50;;;;;;;19.13;18.10;;;21.10;99.90;;;;;;4865059;29;20443;-78
2023/07/24 09:27:19;;;;;;;20.00;19.03;;;21.20;99.90;;;;;;4863853;29;20475;-78
2023/07/24 09:29:47;;;;;;;19.07;18.20;;;21.10;1.00;;;;;;4865183;29;20536;-79
2023/07/24 09:32:25;;;;;;;19.60;18.70;;;21.10;1.00;;;;;;4864178;29;21129;-78
2023/07/24 09:34:54;;;;;;;20.23;19.17;;;21.10;99.90;;;;;;4866607;29;20487;-78
2023/07/24 09:37:27;;;;;;;19.73;18.70;;;21.10;1.00;;;;;;4865928;29;20463;-78
2023/07/24 09:39:56;;;;;;;20.03;18.93;;;21.10;99.90;;;;;;4863875;29;20479;-78
2023/07/24 09:42:31;;;;;;;20.13;18.83;;;21.10;99.90;;;;;;4865682;29;20467;-79
2023/07/24 09:45:00;;;;;;;19.70;18.63;;;21.20;99.90;;;;;;4864483;29;21067;-79
2023/07/24 09:47:29;;;;;;;19.47;18.47;;;21.20;1.00;;;;;;4864165;29;20716;-78
2023/07/24 09:50:17;;;;;;;19.80;18.80;;;21.30;1.00;;;;;;4867502;29;20531;-79
2023/07/24 09:52:47;;;;;;;19.60;18.47;;;21.30;1.00;;;;;;4864761;29;21046;-77
2023/07/24 09:55:24;;;;;;;20.40;19.27;;;21.30;1.00;;;;;;4864151;29;20476;-78
2023/07/24 09:57:55;;;;;;;20.70;19.70;;;21.20;1.00;;;;;;4864921;29;20471;-79
2023/07/24 10:00:23;;;;;;;20.43;19.33;;;21.20;4.00;;;;;;4861463;29;20852;-79
2023/07/24 10:02:52;;;;;;;20.13;18.83;;;21.20;1.00;;;;;;4861163;29;20549;-79
2023/07/24 10:05:21;;;;;;;20.73;19.33;;;21.30;57.60;;;;;;4865602;29;20467;-78
2023/07/24 10:07:49;;;;;;;19.97;18.97;;;21.30;99.90;;;;;;4864136;29;20700;-78
2023/07/24 10:10:20;;;;;;;21.40;20.30;;;21.30;1.00;;;;;;4865222;29;20525;-79
2023/07/24 10:12:49;;;;;;;22.13;20.83;;;21.30;1.00;;;;;;4868005;29;20826;-79
2023/07/24 10:15:18;;;;;;;21.10;19.70;;;21.30;1.00;;;;;;4846497;29;20558;-79
2023/07/24 10:17:47;;;;;;;21.17;20.00;;;21.30;1.00;;;;;;4867216;29;20463;-78
2023/07/24 10:20:18;;;;;;;20.77;19.40;;;21.30;1.00;;;;;;4862099;29;20511;-77
2023/07/24 10:22:48;;;;;;;19.53;18.43;;;21.30;1.00;;;;;;4863958;29;20457;-79
2023/07/24 10:25:22;;;;;;;20.23;19.17;;;21.20;1.00;;;;;;4864402;29;20440;-78
2023/07/24 10:27:54;;;;;;;19.90;18.90;;;21.20;99.90;;;;;;4868137;29;20823;-78
2023/07/24 10:30:33;;;;;;;20.90;19.80;;;21.20;99.90;;;;;;4855890;29;20471;-79
2023/07/24 10:33:11;;;;;;;21.40;20.17;;;21.20;99.90;;;;;;4867823;29;20868;-78
2023/07/24 10:35:48;;;;;;;20.93;19.60;;;21.10;1.00;;;;;;4864819;29;20470;-79
2023/07/24 10:49:51;;;;;;;20.27;19.17;;;20.80;99.90;;;;;;4800169;29;20462;-78
2023/07/24 10:56:17;;;;;;;20.90;19.60;;;20.60;1.00;;;;;;4819761;29;20479;-76
2023/07/24 10:58:46;;;;;;;20.13;18.90;;;20.40;1.00;;;;;;4864060;29;20447;-78
2023/07/24 11:01:15;;;;;;;20.30;19.00;;;20.30;99.90;;;;;;4864819;29;20497;-77
2023/07/24 11:03:44;;;;;;;21.33;20.03;;;20.30;99.90;;;;;;4865302;29;20550;-78
2023/07/24 11:06:16;;;;;;;19.67;18.53;;;20.30;99.90;;;;;;4864800;29;20457;-79
2023/07/24 11:08:52;;;;;;;20.97;19.70;;;20.30;1.00;;;;;;4866204;29;20459;-79
2023/07/24 11:11:22;;;;;;;19.30;18.30;;;20.40;96.20;;;;;;4865007;29;20487;-78
2023/07/24 11:17:02;;;;;;;20.07;18.97;;;20.40;1.00;;;;;;4869167;29;20475;-78
2023/07/24 11:19:50;;;;;;;19.67;18.57;;;20.30;1.00;;;;;;4865383;29;20680;-78
2023/07/24 11:23:02;;;;;;;18.80;17.73;;;20.30;99.90;;;;;;4869654;29;20451;-78
2023/07/24 11:25:30;;;;;;;19.97;18.80;;;20.20;99.90;;;;;;4866418;29;20530;-78
2023/07/24 11:27:59;;;;;;;19.63;18.30;;;20.30;1.00;;;;;;4866352;29;20485;-78
2023/07/24 11:30:28;;;;;;;20.03;18.83;;;20.20;99.90;;;;;;4867036;29;20570;-78
2023/07/24 11:33:00;;;;;;;19.13;18.10;;;20.20;1.00;;;;;;4866377;29;20467;-79
2023/07/24 11:35:29;;;;;;;18.30;17.30;;;20.30;99.90;;;;;;4866642;29;20520;-79
2023/07/24 11:37:58;;;;;;;19.60;18.40;;;20.50;1.00;;;;;;4868653;29;20878;-79
2023/07/24 11:40:33;;;;;;;18.90;17.90;;;20.70;13.50;;;;;;4870960;29;20546;-78
2023/07/24 11:43:01;;;;;;;19.83;18.73;;;20.90;99.90;;;;;;4868355;29;20486;-78
2023/07/24 11:45:42;;;;;;;18.50;17.60;;;20.90;99.90;;;;;;4867702;29;20459;-79
2023/07/24 11:48:15;;;;;;;19.83;18.83;;;21.00;99.90;;;;;;4870691;29;20487;-79
2023/07/24 11:50:44;;;;;;;20.00;18.80;;;21.00;60.80;;;;;;4868923;29;20519;-78
2023/07/24 11:53:27;;;;;;;20.10;19.00;;;21.00;65.70;;;;;;4865409;29;20463;-78
2023/07/24 11:56:02;;;;;;;19.90;18.80;;;20.90;15.40;;;;;;4849646;29;20479;-78
2023/07/24 11:58:31;;;;;;;19.97;18.87;;;20.90;99.90;;;;;;4862953;29;20511;-79
2023/07/24 12:01:01;;;;;;;19.67;18.67;;;20.80;1.00;;;;;;4860616;29;21005;-83
2023/07/24 12:03:30;;;;;;;20.10;19.00;;;20.70;99.90;;;;;;4869262;29;20460;-84
2023/07/24 12:05:59;;;;;;;20.03;19.03;;;20.90;99.90;;;;;;4863930;29;20973;-86
2023/07/24 12:08:34;;;;;;;19.50;18.50;;;21.00;64.10;;;;;;4865654;29;20483;-85
2023/07/24 12:11:03;;;;;;;20.23;19.03;;;21.00;1.00;;;;;;4868594;29;20767;-83
2023/07/24 12:13:32;;;;;;;19.90;18.90;;;21.10;1.00;;;;;;4874375;29;20452;-82
2023/07/24 12:16:02;;;;;;;20.23;19.10;;;21.00;1.00;;;;;;4866500;29;20482;-84
2023/07/24 12:18:31;;;;;;;19.83;18.83;;;21.00;1.00;;;;;;4868527;29;20517;-84
2023/07/24 12:21:11;;;;;;;20.17;18.97;;;20.90;1.00;;;;;;4865484;29;20475;-84
2023/07/24 12:23:39;;;;;;;19.40;18.30;;;21.00;1.00;;;;;;4869506;29;20464;-82
2023/07/24 12:26:12;;;;;;;20.13;19.03;;;21.20;1.00;;;;;;4871126;29;20466;-84
2023/07/24 12:28:41;;;;;;;20.50;19.40;;;21.30;99.90;;;;;;4870568;29;20471;-84
2023/07/24 12:31:11;;;;;;;19.97;18.87;;;21.30;99.90;;;;;;4864393;29;20538;-82
2023/07/24 12:33:41;;;;;;;19.50;18.60;;;21.40;99.90;;;;;;4853560;29;20467;-83
2023/07/24 12:36:10;;;;;;;19.67;18.47;;;21.30;99.90;;;;;;4874694;29;20484;-82
2023/07/24 12:38:38;;;;;;;19.40;18.30;;;21.20;99.90;;;;;;4870737;29;20752;-83
2023/07/24 12:41:06;;;;;;;19.57;18.57;;;21.30;90.60;;;;;;4869363;29;20494;-84
2023/07/24 12:43:34;;;;;;;20.87;19.57;;;21.30;1.00;;;;;;4863408;29;20470;-85
2023/07/24 12:46:03;;;;;;;19.37;18.43;;;21.40;38.80;;;;;;4864240;29;20471;-85
2023/07/24 12:48:32;;;;;;;19.93;18.80;;;21.50;99.90;;;;;;4870073;29;20515;-84
2023/07/24 12:53:43;;;;;;;19.13;18.23;;;21.60;53.10;;;;;;4855902;29;20554;-84
2023/07/24 12:56:24;;;;;;;19.40;18.30;;;21.50;1.00;;;;;;4865394;29;20547;-81
2023/07/24 12:58:52;;;;;;;19.67;18.47;;;21.40;1.00;;;;;;4869017;29;20807;-84
2023/07/24 13:01:38;;;;;;;19.80;18.80;;;21.50;99.90;;;;;;4867282;29;20495;-84
2023/07/24 13:04:43;;;;;;;18.90;17.90;;;21.60;1.00;;;;;;4866741;29;20495;-83